createdAt,value
2022-10-16T00:00:00.000Z,15.76
2022-10-16T00:15:00.000Z,15.66
2022-10-16T00:30:00.000Z,15.26
2022-10-16T00:45:00.000Z,15.2
2022-10-16T01:00:00.000Z,15.23
2022-10-16T01:15:00.000Z,15.04
2022-10-16T01:30:00.000Z,14.93
2022-10-16T01:45:00.000Z,15.04
2022-10-16T02:00:00.000Z,15.18
2022-10-16T02:15:00.000Z,15.19
2022-10-16T02:30:00.000Z,15.14
2022-10-16T02:45:00.000Z,14.98
2022-10-16T03:00:00.000Z,15.11
2022-10-16T03:15:00.000Z,14.99
2022-10-16T03:30:00.000Z,14.8
2022-10-16T03:45:00.000Z,14.78
2022-10-16T04:00:00.000Z,14.79
2022-10-16T04:15:00.000Z,14.76
2022-10-16T04:30:00.000Z,14.75
2022-10-16T04:45:00.000Z,14.64
2022-10-16T05:00:00.000Z,14.68
2022-10-16T05:15:00.000Z,14.61
2022-10-16T05:30:00.000Z,14.48
2022-10-16T05:45:00.000Z,14.45
2022-10-16T06:00:00.000Z,14.53
2022-10-16T06:15:00.000Z,15.27
2022-10-16T06:30:00.000Z,15.95
2022-10-16T06:45:00.000Z,17.64
2022-10-16T07:00:00.000Z,21.09
2022-10-16T07:15:00.000Z,23.2
2022-10-16T07:30:00.000Z,22.24
2022-10-16T07:45:00.000Z,20.91
2022-10-16T08:00:00.000Z,23.78
2022-10-16T08:15:00.000Z,24.61
2022-10-16T08:30:00.000Z,25.31
2022-10-16T08:45:00.000Z,26.08
2022-10-16T09:00:00.000Z,26.57
2022-10-16T09:15:00.000Z,26.24
2022-10-16T09:30:00.000Z,26.72
2022-10-16T09:45:00.000Z,26.71
2022-10-16T10:00:00.000Z,26.92
2022-10-16T10:15:00.000Z,26.89
2022-10-16T10:30:00.000Z,26.89
2022-10-16T10:45:00.000Z,27.08
2022-10-16T11:00:00.000Z,27.23
2022-10-16T11:15:00.000Z,27.38
2022-10-16T11:30:00.000Z,27.12
2022-10-16T11:45:00.000Z,27.15
2022-10-16T12:00:00.000Z,27.13
2022-10-16T12:15:00.000Z,26.83
2022-10-16T12:30:00.000Z,26.07
2022-10-16T12:45:00.000Z,26.13
2022-10-16T13:00:00.000Z,26.08
2022-10-16T13:15:00.000Z,26.05
2022-10-16T13:30:00.000Z,25.91
2022-10-16T13:45:00.000Z,25.78
2022-10-16T14:00:00.000Z,25.45
2022-10-16T14:15:00.000Z,25.37
2022-10-16T14:30:00.000Z,25.34
2022-10-16T14:45:00.000Z,25.05
2022-10-16T15:00:00.000Z,24.74
2022-10-16T15:15:00.000Z,24.46
2022-10-16T15:30:00.000Z,24.16
2022-10-16T15:45:00.000Z,23.61
2022-10-16T16:00:00.000Z,22.84
2022-10-16T16:15:00.000Z,22.29
2022-10-16T16:30:00.000Z,21.69
2022-10-16T16:45:00.000Z,21.08
2022-10-16T17:00:00.000Z,20.34
2022-10-16T17:15:00.000Z,19.74
2022-10-16T17:30:00.000Z,19.28
2022-10-16T17:45:00.000Z,18.82
2022-10-16T18:00:00.000Z,18.62
2022-10-16T18:15:00.000Z,18.52
2022-10-16T18:30:00.000Z,18.1
2022-10-16T18:45:00.000Z,17.81
2022-10-16T19:00:00.000Z,17.55
2022-10-16T19:15:00.000Z,17.27
2022-10-16T19:30:00.000Z,17.01
2022-10-16T19:45:00.000Z,16.96
2022-10-16T20:00:00.000Z,16.79
2022-10-16T20:15:00.000Z,16.56
2022-10-16T20:30:00.000Z,16.37
2022-10-16T20:45:00.000Z,16.01
2022-10-16T21:00:00.000Z,15.67
2022-10-16T21:15:00.000Z,15.51
2022-10-16T21:30:00.000Z,15.35
2022-10-16T21:45:00.000Z,15.13
2022-10-16T22:00:00.000Z,15.09
2022-10-16T22:15:00.000Z,14.87
2022-10-16T22:30:00.000Z,14.54
2022-10-16T22:45:00.000Z,14.28
2022-10-16T23:00:00.000Z,14.35
2022-10-16T23:15:00.000Z,14.32
2022-10-16T23:30:00.000Z,14.35
2022-10-16T23:45:00.000Z,14.35
